Eurocargo Valencia — IBGZ — position and weather

sailwx.info

Track history (hours):
 
Tides and Currents Weather Stations Pressure Air Temp Water Temp Dewpoint Dewpoint Depression Visibility Wind Speed Wind Dir Waves Ship Positions

Eurocargo Valencia

Last reported at 2014-Nov-23 22:11 UTC. Time now 2014-Nov-26 21:29 UTC.
Position N 36°49' E 023°33'.

Length 196 m; draft 6.4 m.

Type: Cargo ship. MMSI: 247579000.

Date/timePositionNaut miles runAvg speedWind from/ knotsBaromVisibWave heightAir tempDewpointWater temp
2014-Nov-23 22:11N 36°49' E 023°33'4014.4
2014-Nov-23 19:23N 37°22' E 024°01'1214.6
2014-Nov-23 18:33N 37°32' E 024°09'28612.4
2014-Nov-22 19:33N 40°26' E 029°01'2 0.1
2014-Nov-21 20:33N 40°27' E 029°04'1413.3
2014-Nov-21 19:30N 40°29' E 028°46'1111.6
2014-Nov-21 18:33N 40°39' E 028°52'1515.0
2014-Nov-21 17:33N 40°42' E 029°12'1313.3
2014-Nov-21 16:33N 40°45' E 029°29'291 9.1
2014-Nov-20 08:28N 37°46' E 024°34'1213.6
2014-Nov-20 07:33N 37°34' E 024°27'1414.2
2014-Nov-20 06:33N 37°23' E 024°17'1414.0
2014-Nov-20 05:33N 37°12' E 024°06'1613.9
2014-Nov-20 04:22N 36°59' E 023°53'1214.0
2014-Nov-20 03:31N 36°50' E 023°43'1514.0
2014-Nov-20 02:28N 36°39' E 023°31'  
2014-Nov-14 02:26N 36°28' E 023°17'1415.2
2014-Nov-14 01:33N 36°39' E 023°27'1515.3
2014-Nov-14 00:33N 36°52' E 023°37'1815.1
2014-Nov-13 23:20N 37°08' E 023°49'1215.0
2014-Nov-13 22:33N 37°18' E 023°56'  
Track history (hours):
 
Tides and Currents Weather Stations Pressure Air Temp Water Temp Dewpoint Dewpoint Depression Visibility Wind Speed Wind Dir Waves Ship Positions

Eurocargo Valencia

Last reported at 2014-Nov-23 22:11 UTC. Time now 2014-Nov-26 21:29 UTC.
Position N 36°49' E 023°33'.

Length 196 m; draft 6.4 m.

Type: Cargo ship. MMSI: 247579000.

Date/timePositionNaut miles runAvg speedWind from/ knotsBaromVisibWave heightAir tempDewpointWater temp
2014-Nov-23 22:11N 36°49' E 023°33'4014.4
2014-Nov-23 19:23N 37°22' E 024°01'1214.6
2014-Nov-23 18:33N 37°32' E 024°09'28612.4
2014-Nov-22 19:33N 40°26' E 029°01'2 0.1
2014-Nov-21 20:33N 40°27' E 029°04'1413.3
2014-Nov-21 19:30N 40°29' E 028°46'1111.6
2014-Nov-21 18:33N 40°39' E 028°52'1515.0
2014-Nov-21 17:33N 40°42' E 029°12'1313.3
2014-Nov-21 16:33N 40°45' E 029°29'291 9.1
2014-Nov-20 08:28N 37°46' E 024°34'1213.6
2014-Nov-20 07:33N 37°34' E 024°27'1414.2
2014-Nov-20 06:33N 37°23' E 024°17'1414.0
2014-Nov-20 05:33N 37°12' E 024°06'1613.9
2014-Nov-20 04:22N 36°59' E 023°53'1214.0
2014-Nov-20 03:31N 36°50' E 023°43'1514.0
2014-Nov-20 02:28N 36°39' E 023°31'  
2014-Nov-14 02:26N 36°28' E 023°17'1415.2
2014-Nov-14 01:33N 36°39' E 023°27'1515.3
2014-Nov-14 00:33N 36°52' E 023°37'1815.1
2014-Nov-13 23:20N 37°08' E 023°49'1215.0
2014-Nov-13 22:33N 37°18' E 023°56'  

Dump ship's entire track history